CheckWX is a tool to help pilots better visualize weather data.  It is not intended as a substitute for an official pre-flight weather briefing.

11:13:26 UTC

CWWU TAF
Ingenika Point Airport
Long Pond, Canada
TAF AMD CWWU 260747Z 2607/2706 VRB03KT P6SM SCT270 BKN290 FM261400 09008KT P6SM BKN030 FM270000 09008KT P6SM BKN020 FM270400 06005KT P6SM BKN010 RMK NXT FCST BY 261200Z

May-26@
07:00 UTC

May-26 @ 07:00 UTC

May-26@
14:00 UTC

May-26 @ 14:00 UTC

TAF AMD CWWU 260747Z 2607/2706 VRB03KT P6SM SCT270 BKN290
Wind
  • Variable at 3 KTS
Cloud Levels
  • Scattered at 27,000' AGL
  • Broken at 29,000' AGL

May-26@
14:00 UTC

May-26 @ 14:00 UTC

May-27@
00:00 UTC

May-27 @ 00:00 UTC

FM261400 09008KT P6SM BKN030

From

From Standard forecast or significant change

Wind
  • 090° at 8 KTS
Cloud Levels
  • Broken at 3,000' AGL

May-27@
00:00 UTC

May-27 @ 00:00 UTC

May-27@
04:00 UTC

May-27 @ 04:00 UTC

FM270000 09008KT P6SM BKN020

From

From Standard forecast or significant change

Wind
  • 090° at 8 KTS
Cloud Levels
  • Broken at 2,000' AGL

May-27@
04:00 UTC

May-27 @ 04:00 UTC

May-27@
06:00 UTC

May-27 @ 06:00 UTC

FM270400 06005KT P6SM BKN010 RMK NXT FCST BY 261200Z

From

From Standard forecast or significant change

Wind
  • 060° at 5 KTS
Cloud Levels
  • Broken at 1,000' AGL